Kezdőlap
METAR-TAF:

METAR-TAF

Repülőterek :

Southern Illinois Airport

Carbondale-Murphysboro, Illinois, Amerikai Egyesült Államok

földrajzi szélesség: 37-46-59N, földrajzi hosszúság: 089-14-42W, magasság: 125 m

Jelenlegi meteorológiai megfigyelések

A jelentés 30 perccel ezelõtt készült, 10:52 UTC
Északi szél 4 kt
Hőmérséklet 21°C
Páratartalom 88%
Légköri nyomás 1018 hPa
Látótávolság: 14.5 km
Derült ég

METAR: KMDH 211052Z AUTO 35004KT 9SM CLR 21/19 A3005 RMK AO2 SLP173 T02060194

Idő: 06:22 (11:22 UTC)


TAF: hiányzik

Meteorológiai megfigyelések és előrejelzések több, mint 4000 repülőtéren (METAR és TAF jelentéseket).

A térképen piros és sárga pontok jelzik az elérhető meteorológiai állomásokat.

Mozgassa az egeret a pont fölött, hogy megjelenjen az állomás neve.

Azután kattintson az időjárási megfigyelések és előrejelzések megtekintéséhez.

A térkép megváltoztatása: kattintson a fekete keresztel jelölt zöld gombra ráközelítéshez, a vonallal jelölt zöld gombra távolításhoz, vagy a zöld nyilakra a szomszédos térképek eléréséhez.


METAR-TAF: